Notice: Undefined index: language in D:\xampp\htdocs\vam\index.php on line 25
Open Air Virtual

 METAR AND TAF INFORMATION
METAR FOR ESUP
ADDS - METARS form results

(1451 UTC 04 June 2020)
Data provider http://aviationweather.gov/metar/data/
 
METAR text: ESUP 041420Z 12005KT 070V170 CAVOK 18/07 Q1010
Conditions at: ESUP (PAJALA , SE) observed 1420 UTC 04 June 2020
Temperature: 18.0°C (64°F)
Dewpoint: 7.0°C (45°F) [RH = 49%]
Pressure (altimeter): 29.82 inches Hg (1010.0 mb)
Winds: from the ESE (120 degrees) at 6 MPH (5 knots; 2.6 m/s)
Visibility: 6 or more miles (10+ km)
Ceiling: ceiling and visibility are OK
Clouds: unknown
Weather: no significant weather observed at this time

 AIRPORT MAP

 RUNWAY INFORMATION
Runway 11 Runway length 4659 ft Runway width 98 ft
Runway elevation 540 ft Runway displaced threshold 0 ft Runway heading 118
Runway 29 Runway length 4659 ft Runway width 98 ft
Runway elevation 540 ft Runway displaced threshold 0 ft Runway heading 298

 AIRPORT FREQUENCIES
Type AFIS Name AFIS Frequency 118.25 MHZ

 AIRPORT NEAR NAVIGATION AIDS



Powered by Virtual Airlines Manager [v2.6.2]